METAR Data
IDs: Format: Raw Decoded Include TAF

Data at: 2235 UTC 21 May 2022

KVNY 212151Z 20008KT 10SM BKN039 22/11 A2994 RMK AO2 SLP131 T02220106